createdAt,value
2018-01-28T00:00:21.963Z,0.00
2018-01-28T00:01:21.919Z,0.00
2018-01-28T00:02:21.884Z,0.00
2018-01-28T00:03:21.836Z,0.00
2018-01-28T00:04:21.818Z,0.00
2018-01-28T00:05:21.765Z,0.00
2018-01-28T00:06:21.723Z,0.00
2018-01-28T00:07:21.684Z,0.00
2018-01-28T00:08:21.654Z,0.00
2018-01-28T00:09:21.618Z,0.00
2018-01-28T00:10:21.558Z,0.00
2018-01-28T00:11:21.557Z,0.00
2018-01-28T00:12:21.488Z,0.00
2018-01-28T00:13:21.445Z,0.00
2018-01-28T00:14:21.414Z,0.00
2018-01-28T00:15:21.395Z,0.00
2018-01-28T00:16:21.323Z,0.00
2018-01-28T00:17:21.287Z,0.00
2018-01-28T00:18:21.240Z,0.00
2018-01-28T00:19:21.208Z,0.00
2018-01-28T00:20:21.171Z,0.00
2018-01-28T00:21:21.166Z,0.00
2018-01-28T00:22:21.091Z,0.00
2018-01-28T00:23:21.101Z,0.00
2018-01-28T00:24:21.006Z,0.00
2018-01-28T00:25:20.971Z,0.00
2018-01-28T00:26:20.945Z,0.00
2018-01-28T00:27:20.894Z,0.00
2018-01-28T00:28:20.850Z,0.00
2018-01-28T00:29:20.802Z,0.00
2018-01-28T00:30:20.757Z,0.00
2018-01-28T00:31:20.718Z,0.00
2018-01-28T00:32:20.680Z,0.00
2018-01-28T00:33:20.638Z,0.00
2018-01-28T00:34:20.633Z,0.00
2018-01-28T00:35:20.558Z,0.00
2018-01-28T00:36:20.525Z,0.00
2018-01-28T00:37:20.485Z,0.00
2018-01-28T00:38:20.451Z,0.00
2018-01-28T00:39:20.400Z,0.00
2018-01-28T00:40:20.360Z,0.00
2018-01-28T00:41:20.327Z,0.00
2018-01-28T00:42:20.287Z,0.00
2018-01-28T00:43:20.251Z,0.00
2018-01-28T00:44:20.217Z,0.00
2018-01-28T00:45:20.159Z,0.00
2018-01-28T00:46:20.121Z,0.00
2018-01-28T00:47:20.077Z,0.00
2018-01-28T00:48:20.041Z,0.00
2018-01-28T00:49:19.996Z,0.00
2018-01-28T00:50:19.960Z,0.00
2018-01-28T00:51:19.928Z,0.00
2018-01-28T00:52:19.877Z,0.00
2018-01-28T00:53:19.838Z,0.00
2018-01-28T00:54:19.796Z,0.00
2018-01-28T00:55:19.759Z,0.00
2018-01-28T00:56:19.725Z,0.00
2018-01-28T00:57:19.680Z,0.00
2018-01-28T00:58:19.638Z,0.00
2018-01-28T00:59:19.596Z,0.00
2018-01-28T01:00:19.568Z,0.00
2018-01-28T01:01:19.523Z,0.00
2018-01-28T01:02:19.486Z,0.00
2018-01-28T01:03:19.437Z,0.00
2018-01-28T01:04:19.447Z,0.00
2018-01-28T01:05:19.359Z,0.00
2018-01-28T01:06:19.317Z,0.00
2018-01-28T01:07:19.282Z,0.00
2018-01-28T01:08:19.236Z,0.00
2018-01-28T01:09:19.203Z,0.00
2018-01-28T01:10:19.211Z,0.00
2018-01-28T01:11:19.120Z,0.00
2018-01-28T01:12:19.079Z,0.00
2018-01-28T01:13:19.054Z,0.00
2018-01-28T01:14:18.996Z,0.00
2018-01-28T01:15:18.964Z,0.00
2018-01-28T01:16:18.921Z,0.00
2018-01-28T01:17:18.882Z,0.00
2018-01-28T01:18:18.837Z,0.00
2018-01-28T01:19:18.809Z,0.00
2018-01-28T01:20:18.759Z,0.00
2018-01-28T01:21:18.721Z,0.00
2018-01-28T01:22:18.680Z,0.00
2018-01-28T01:23:18.647Z,0.00
2018-01-28T01:24:18.659Z,0.00
2018-01-28T01:25:18.559Z,0.00
2018-01-28T01:26:18.518Z,0.00
2018-01-28T01:27:18.477Z,0.00
2018-01-28T01:28:18.447Z,0.00
2018-01-28T01:29:18.480Z,0.00
2018-01-28T01:30:18.359Z,0.00
2018-01-28T01:31:18.318Z,0.00
2018-01-28T01:32:18.282Z,0.00
2018-01-28T01:33:18.241Z,0.00
2018-01-28T01:34:18.201Z,0.00
2018-01-28T01:35:18.170Z,0.00
2018-01-28T01:36:18.125Z,0.00
2018-01-28T01:37:18.080Z,0.00
2018-01-28T01:38:18.036Z,0.00
2018-01-28T01:39:18.007Z,0.00
2018-01-28T01:40:17.963Z,0.00
2018-01-28T01:41:17.935Z,0.00
2018-01-28T01:42:17.878Z,0.00
2018-01-28T01:43:17.850Z,0.00
2018-01-28T01:44:17.815Z,0.00
2018-01-28T01:45:17.764Z,0.00
2018-01-28T01:46:17.720Z,0.00
2018-01-28T01:47:17.683Z,0.00
2018-01-28T01:48:17.644Z,0.00
2018-01-28T01:49:17.610Z,0.00
2018-01-28T01:50:17.576Z,0.00
2018-01-28T01:51:17.541Z,0.00
2018-01-28T01:52:17.492Z,0.00
2018-01-28T01:53:17.444Z,0.00
2018-01-28T01:54:17.407Z,0.00
2018-01-28T01:55:17.365Z,0.00
2018-01-28T01:56:17.323Z,0.00
2018-01-28T01:57:17.284Z,0.00
2018-01-28T01:58:17.246Z,0.00
2018-01-28T01:59:17.223Z,0.00
2018-01-28T02:00:17.166Z,0.00
2018-01-28T02:01:17.143Z,0.00
2018-01-28T02:02:17.089Z,0.00
2018-01-28T02:03:17.045Z,0.00
2018-01-28T02:04:17.011Z,0.00
2018-01-28T02:05:16.975Z,0.00
2018-01-28T02:06:16.926Z,0.00
2018-01-28T02:07:16.883Z,0.00
2018-01-28T02:08:16.842Z,0.00
2018-01-28T02:09:16.804Z,0.00
2018-01-28T02:10:16.775Z,0.00
2018-01-28T02:11:16.723Z,0.00
2018-01-28T02:12:16.682Z,0.00
2018-01-28T02:13:16.646Z,0.00
2018-01-28T02:14:16.608Z,0.00
2018-01-28T02:15:16.603Z,0.00
2018-01-28T02:16:16.521Z,0.00
2018-01-28T02:17:16.548Z,0.00
2018-01-28T02:18:16.449Z,0.00
2018-01-28T02:19:16.402Z,0.00
2018-01-28T02:20:16.364Z,0.00
2018-01-28T02:21:16.326Z,0.00
2018-01-28T02:22:16.359Z,0.00
2018-01-28T02:23:16.448Z,0.00
2018-01-28T02:24:16.207Z,0.00
2018-01-28T02:25:16.167Z,0.00
2018-01-28T02:26:16.148Z,0.00
2018-01-28T02:27:16.085Z,0.00
2018-01-28T02:28:16.047Z,0.00
2018-01-28T02:29:16.015Z,0.00
2018-01-28T02:30:15.963Z,0.00
2018-01-28T02:31:15.932Z,0.00
2018-01-28T02:32:15.888Z,0.00
2018-01-28T02:33:15.849Z,0.00
2018-01-28T02:34:15.809Z,0.00
2018-01-28T02:35:15.773Z,0.00
2018-01-28T02:36:15.726Z,0.00
2018-01-28T02:37:15.687Z,0.00
2018-01-28T02:38:15.648Z,0.00
2018-01-28T02:39:15.612Z,0.00
2018-01-28T02:40:15.575Z,0.00
2018-01-28T02:41:15.553Z,0.00
2018-01-28T02:42:15.484Z,0.00
2018-01-28T02:43:15.466Z,0.00
2018-01-28T02:44:15.417Z,0.00
2018-01-28T02:45:15.372Z,0.00
2018-01-28T02:46:15.336Z,0.00
2018-01-28T02:47:15.288Z,0.00
2018-01-28T02:48:15.268Z,0.00
2018-01-28T02:49:15.212Z,0.00
2018-01-28T02:50:15.176Z,0.00
2018-01-28T02:51:15.147Z,0.00
2018-01-28T02:52:15.097Z,0.00
2018-01-28T02:53:15.051Z,0.00
2018-01-28T02:54:15.020Z,0.00
2018-01-28T02:55:14.988Z,0.00
2018-01-28T02:56:14.934Z,0.00
2018-01-28T02:57:14.891Z,0.00
2018-01-28T02:58:14.883Z,0.00
2018-01-28T02:59:14.812Z,0.00
2018-01-28T03:00:14.770Z,0.00
2018-01-28T03:01:14.738Z,0.00
2018-01-28T03:02:14.707Z,0.00
2018-01-28T03:03:14.670Z,0.00
2018-01-28T03:04:14.619Z,0.00
2018-01-28T03:05:14.574Z,0.00
2018-01-28T03:06:14.539Z,0.00
2018-01-28T03:07:14.502Z,0.00
2018-01-28T03:08:14.464Z,0.00
2018-01-28T03:09:14.416Z,0.00
2018-01-28T03:10:14.377Z,0.00
2018-01-28T03:11:14.361Z,0.00
2018-01-28T03:12:14.316Z,0.00
2018-01-28T03:13:14.262Z,0.00
2018-01-28T03:14:14.216Z,0.00
2018-01-28T03:15:14.184Z,0.00
2018-01-28T03:16:14.182Z,0.00
2018-01-28T03:17:14.109Z,0.00
2018-01-28T03:18:14.056Z,0.00
2018-01-28T03:19:14.025Z,0.00
2018-01-28T03:20:13.975Z,0.00
2018-01-28T03:21:13.939Z,0.00
2018-01-28T03:22:13.910Z,0.00
2018-01-28T03:23:13.860Z,0.00
2018-01-28T03:24:13.821Z,0.00
2018-01-28T03:25:13.797Z,0.00
2018-01-28T03:26:13.739Z,0.00
2018-01-28T03:27:13.720Z,0.00
2018-01-28T03:28:13.661Z,0.00
2018-01-28T03:29:13.625Z,0.00
2018-01-28T03:30:13.581Z,0.00
2018-01-28T03:31:13.539Z,0.00
2018-01-28T03:32:13.508Z,0.00
2018-01-28T03:33:13.463Z,0.00
2018-01-28T03:34:13.419Z,0.00
2018-01-28T03:35:13.380Z,0.00
2018-01-28T03:36:13.349Z,0.00
2018-01-28T03:37:13.302Z,0.00
2018-01-28T03:38:13.264Z,0.00
2018-01-28T03:39:13.227Z,0.00
2018-01-28T03:40:13.183Z,0.00
2018-01-28T03:41:13.150Z,0.00
2018-01-28T03:42:13.100Z,0.00
2018-01-28T03:43:13.068Z,0.00
2018-01-28T03:44:13.035Z,0.00
2018-01-28T03:45:12.994Z,0.00
2018-01-28T03:46:12.947Z,0.00
2018-01-28T03:47:12.905Z,0.00
2018-01-28T03:48:12.865Z,0.00
2018-01-28T03:49:12.824Z,0.00
2018-01-28T03:50:12.787Z,0.00
2018-01-28T03:51:12.745Z,0.00
2018-01-28T03:52:12.704Z,0.00
2018-01-28T03:53:12.676Z,0.00
2018-01-28T03:54:12.631Z,0.00
2018-01-28T03:55:12.583Z,0.00
2018-01-28T03:56:12.557Z,0.00
2018-01-28T03:57:12.505Z,0.00
2018-01-28T03:58:12.467Z,0.00
2018-01-28T03:59:12.425Z,0.00
2018-01-28T04:00:12.390Z,0.00
2018-01-28T04:01:12.349Z,0.00
2018-01-28T04:02:12.311Z,0.00
2018-01-28T04:03:12.269Z,0.00
2018-01-28T04:04:12.234Z,0.00
2018-01-28T04:05:12.191Z,0.00
2018-01-28T04:06:12.146Z,0.00
2018-01-28T04:07:12.106Z,0.00
2018-01-28T04:08:12.065Z,0.00
2018-01-28T04:09:12.027Z,0.00
2018-01-28T04:10:11.984Z,0.00
2018-01-28T04:11:11.947Z,0.00
2018-01-28T04:12:11.923Z,0.00
2018-01-28T04:13:11.865Z,0.00
2018-01-28T04:14:11.825Z,0.00
2018-01-28T04:15:11.785Z,0.00
2018-01-28T04:16:11.745Z,0.00
2018-01-28T04:17:11.714Z,0.00
2018-01-28T04:18:11.674Z,0.00
2018-01-28T04:19:11.624Z,0.00
2018-01-28T04:20:11.590Z,0.00
2018-01-28T04:21:11.546Z,0.00
2018-01-28T04:22:11.510Z,0.00
2018-01-28T04:23:11.463Z,0.00
2018-01-28T04:24:11.430Z,0.00
2018-01-28T04:25:11.408Z,0.00
2018-01-28T04:26:11.342Z,0.00
2018-01-28T04:27:11.315Z,0.00
2018-01-28T04:28:11.281Z,0.00
2018-01-28T04:29:11.231Z,0.00
2018-01-28T04:30:11.218Z,0.00
2018-01-28T04:31:11.179Z,0.00
2018-01-28T04:32:11.107Z,0.00
2018-01-28T04:33:11.062Z,0.00
2018-01-28T04:34:11.026Z,0.00
2018-01-28T04:35:10.985Z,0.00
2018-01-28T04:36:10.945Z,0.00
2018-01-28T04:37:10.903Z,0.00
2018-01-28T04:38:10.862Z,0.00
2018-01-28T04:39:10.840Z,0.00
2018-01-28T04:40:10.791Z,0.00
2018-01-28T04:41:10.748Z,0.00
2018-01-28T04:42:10.717Z,0.00
2018-01-28T04:43:10.715Z,0.00
2018-01-28T04:44:10.624Z,0.00
2018-01-28T04:45:10.593Z,0.00
2018-01-28T04:46:10.551Z,0.00
2018-01-28T04:47:10.505Z,0.00
2018-01-28T04:48:10.463Z,0.00
2018-01-28T04:49:10.422Z,0.00
2018-01-28T04:50:10.408Z,0.00
2018-01-28T04:51:10.350Z,0.00
2018-01-28T04:52:10.304Z,0.00
2018-01-28T04:53:10.269Z,0.00
2018-01-28T04:54:10.220Z,0.00
2018-01-28T04:55:10.188Z,0.00
2018-01-28T04:56:10.146Z,0.00
2018-01-28T04:57:10.110Z,0.00
2018-01-28T04:58:10.060Z,0.00
2018-01-28T04:59:10.028Z,0.00
2018-01-28T05:00:09.982Z,0.00
2018-01-28T05:01:09.946Z,0.00
2018-01-28T05:02:09.901Z,0.00
2018-01-28T05:03:09.861Z,0.00
2018-01-28T05:04:09.821Z,0.00
2018-01-28T05:05:09.781Z,0.00
2018-01-28T05:06:09.755Z,0.00
2018-01-28T05:07:09.706Z,0.00
2018-01-28T05:08:09.663Z,0.00
2018-01-28T05:09:09.621Z,0.00
2018-01-28T05:10:09.579Z,0.00
2018-01-28T05:11:09.544Z,0.00
2018-01-28T05:12:09.534Z,0.00
2018-01-28T05:13:09.459Z,0.00
2018-01-28T05:14:09.473Z,0.00
2018-01-28T05:15:09.383Z,0.00
2018-01-28T05:16:09.341Z,0.00
2018-01-28T05:17:09.302Z,0.00
2018-01-28T05:18:09.273Z,0.00
2018-01-28T05:19:09.235Z,0.00
2018-01-28T05:20:09.175Z,0.00
2018-01-28T05:21:09.145Z,0.00
2018-01-28T05:22:09.094Z,0.00
2018-01-28T05:23:09.066Z,0.00
2018-01-28T05:24:09.037Z,0.00
2018-01-28T05:25:08.978Z,0.00
2018-01-28T05:26:08.953Z,0.00
2018-01-28T05:27:08.898Z,0.00
2018-01-28T05:28:08.857Z,0.00
2018-01-28T05:29:08.835Z,0.00
2018-01-28T05:30:08.777Z,0.00
2018-01-28T05:31:08.736Z,0.00
2018-01-28T05:32:08.713Z,0.00
2018-01-28T05:33:08.653Z,0.00
2018-01-28T05:34:08.613Z,0.00
2018-01-28T05:35:08.575Z,0.00
2018-01-28T05:36:08.534Z,0.00
2018-01-28T05:37:08.493Z,0.00
2018-01-28T05:38:08.452Z,0.00
2018-01-28T05:39:08.419Z,0.00
2018-01-28T05:40:08.376Z,0.00
2018-01-28T05:41:08.336Z,0.00
2018-01-28T05:42:08.292Z,0.00
2018-01-28T05:43:08.255Z,0.00
2018-01-28T05:44:08.213Z,0.00
2018-01-28T05:45:08.174Z,0.00
2018-01-28T05:46:08.132Z,0.00
2018-01-28T05:47:08.116Z,0.00
2018-01-28T05:48:08.051Z,0.00
2018-01-28T05:49:08.012Z,0.00
2018-01-28T05:50:07.971Z,0.00
2018-01-28T05:51:07.940Z,0.00
2018-01-28T05:52:07.901Z,0.00
2018-01-28T05:53:07.855Z,0.00
2018-01-28T05:54:07.811Z,0.00
2018-01-28T05:55:07.779Z,0.00
2018-01-28T05:56:07.738Z,0.00
2018-01-28T05:57:07.690Z,0.00
2018-01-28T05:58:07.654Z,0.00
2018-01-28T05:59:07.624Z,0.00
2018-01-28T06:00:07.584Z,0.00
2018-01-28T06:01:07.535Z,0.00
2018-01-28T06:02:07.510Z,0.00
2018-01-28T06:03:07.457Z,0.00
2018-01-28T06:04:07.414Z,0.00
2018-01-28T06:05:07.368Z,0.00
2018-01-28T06:06:07.328Z,0.00
2018-01-28T06:07:07.297Z,0.00
2018-01-28T06:08:07.247Z,0.00
2018-01-28T06:09:07.216Z,0.00
2018-01-28T06:10:07.169Z,0.00
2018-01-28T06:11:07.129Z,0.00
2018-01-28T06:12:07.089Z,0.00
2018-01-28T06:13:07.057Z,0.00
2018-01-28T06:14:07.009Z,0.00
2018-01-28T06:15:06.971Z,0.00
2018-01-28T06:16:06.926Z,0.00
2018-01-28T06:17:06.890Z,0.00
2018-01-28T06:18:06.850Z,0.00
2018-01-28T06:19:06.841Z,0.00
2018-01-28T06:20:06.770Z,0.00
2018-01-28T06:21:06.730Z,0.00
2018-01-28T06:22:06.684Z,0.00
2018-01-28T06:23:06.642Z,0.00
2018-01-28T06:24:06.615Z,0.00
2018-01-28T06:25:06.570Z,0.00
2018-01-28T06:26:06.530Z,0.00
2018-01-28T06:27:06.492Z,0.00
2018-01-28T06:28:06.446Z,0.00
2018-01-28T06:29:06.420Z,0.00
2018-01-28T06:30:06.364Z,0.00
2018-01-28T06:31:06.327Z,0.00
2018-01-28T06:32:06.286Z,0.00
2018-01-28T06:33:06.243Z,0.00
2018-01-28T06:34:06.202Z,0.00
2018-01-28T06:35:06.163Z,0.00
2018-01-28T06:36:06.120Z,0.00
2018-01-28T06:37:06.087Z,0.00
2018-01-28T06:38:06.048Z,0.00
2018-01-28T06:39:06.002Z,0.00
2018-01-28T06:40:05.999Z,0.00
2018-01-28T06:41:05.925Z,0.00
2018-01-28T06:42:05.878Z,0.00
2018-01-28T06:43:05.838Z,0.00
2018-01-28T06:44:05.803Z,0.00
2018-01-28T06:45:05.760Z,0.00
2018-01-28T06:46:05.719Z,0.00
2018-01-28T06:47:05.677Z,0.00
2018-01-28T06:48:05.641Z,0.00
2018-01-28T06:49:05.602Z,0.00
2018-01-28T06:50:05.556Z,0.00
2018-01-28T06:51:05.524Z,0.00
2018-01-28T06:52:05.480Z,0.00
2018-01-28T06:53:05.447Z,0.00
2018-01-28T06:54:05.398Z,0.00
2018-01-28T06:55:05.360Z,0.00
2018-01-28T06:56:05.329Z,0.00
2018-01-28T06:57:05.276Z,0.00
2018-01-28T06:58:05.235Z,0.00
2018-01-28T06:59:05.201Z,0.00
2018-01-28T07:00:05.154Z,0.00
2018-01-28T07:01:05.114Z,0.00
2018-01-28T07:02:05.075Z,0.00
2018-01-28T07:03:05.039Z,0.00
2018-01-28T07:04:04.993Z,0.00
2018-01-28T07:05:04.954Z,0.00
2018-01-28T07:06:04.922Z,0.00
2018-01-28T07:07:04.877Z,0.00
2018-01-28T07:08:04.832Z,0.00
2018-01-28T07:09:04.793Z,0.00
2018-01-28T07:10:04.753Z,0.00
2018-01-28T07:11:04.713Z,0.00
2018-01-28T07:12:04.674Z,0.00
2018-01-28T07:13:04.644Z,0.00
2018-01-28T07:14:04.595Z,5.63
2018-01-28T07:15:04.550Z,5.63
2018-01-28T07:16:04.511Z,5.63
2018-01-28T07:17:04.470Z,5.63
2018-01-28T07:18:04.450Z,5.63
2018-01-28T07:19:04.402Z,11.25
2018-01-28T07:20:04.354Z,5.63
2018-01-28T07:21:04.308Z,5.63
2018-01-28T07:22:04.269Z,5.63
2018-01-28T07:23:04.233Z,5.63
2018-01-28T07:24:04.194Z,5.63
2018-01-28T07:25:04.152Z,5.63
2018-01-28T07:26:04.120Z,5.63
2018-01-28T07:27:04.071Z,5.63
2018-01-28T07:28:04.043Z,5.63
2018-01-28T07:29:04.004Z,11.25
2018-01-28T07:30:03.952Z,11.25
2018-01-28T07:31:03.906Z,11.25
2018-01-28T07:32:03.865Z,11.25
2018-01-28T07:33:03.833Z,16.88
2018-01-28T07:34:03.789Z,16.88
2018-01-28T07:35:03.758Z,16.88
2018-01-28T07:36:03.709Z,22.50
2018-01-28T07:37:03.670Z,16.88
2018-01-28T07:38:03.629Z,11.25
2018-01-28T07:39:03.599Z,11.25
2018-01-28T07:40:03.573Z,11.25
2018-01-28T07:41:03.517Z,11.25
2018-01-28T07:42:03.467Z,11.25
2018-01-28T07:43:03.484Z,16.88
2018-01-28T07:44:03.417Z,22.50
2018-01-28T07:45:03.380Z,28.13
2018-01-28T07:46:03.306Z,33.75
2018-01-28T07:47:03.397Z,33.75
2018-01-28T07:48:03.359Z,33.75
2018-01-28T07:49:03.224Z,33.75
2018-01-28T07:50:03.158Z,28.13
2018-01-28T07:51:03.128Z,28.13
2018-01-28T07:52:03.084Z,28.13
2018-01-28T07:53:03.043Z,28.13
2018-01-28T07:54:02.999Z,28.13
2018-01-28T07:55:02.971Z,28.13
2018-01-28T07:56:03.071Z,28.13
2018-01-28T07:57:02.862Z,28.13
2018-01-28T07:58:02.863Z,28.13
2018-01-28T07:59:02.786Z,33.75
2018-01-28T08:00:02.742Z,39.38
2018-01-28T08:01:02.710Z,45.00
2018-01-28T08:02:02.664Z,45.00
2018-01-28T08:03:02.634Z,39.38
2018-01-28T08:04:02.585Z,45.00
2018-01-28T08:05:02.545Z,45.00
2018-01-28T08:06:02.502Z,39.38
2018-01-28T08:07:02.468Z,45.00
2018-01-28T08:08:02.425Z,45.00
2018-01-28T08:09:02.386Z,45.00
2018-01-28T08:10:02.343Z,33.75
2018-01-28T08:11:02.304Z,39.38
2018-01-28T08:12:02.272Z,50.63
2018-01-28T08:13:02.228Z,73.13
2018-01-28T08:14:02.183Z,73.13
2018-01-28T08:15:02.172Z,67.50
2018-01-28T08:16:02.104Z,61.88
2018-01-28T08:17:02.066Z,61.88
2018-01-28T08:18:02.026Z,61.88
2018-01-28T08:19:01.983Z,61.88
2018-01-28T08:20:01.949Z,56.25
2018-01-28T08:21:01.905Z,61.88
2018-01-28T08:22:01.896Z,73.13
2018-01-28T08:23:01.824Z,90.00
2018-01-28T08:24:03.744Z,84.38
2018-01-28T08:25:01.754Z,101.25
2018-01-28T08:26:01.708Z,78.75
2018-01-28T08:27:01.668Z,56.25
2018-01-28T08:28:01.625Z,33.75
2018-01-28T08:29:01.585Z,28.13
2018-01-28T08:30:01.599Z,28.13
2018-01-28T08:31:01.506Z,33.75
2018-01-28T08:32:01.466Z,28.13
2018-01-28T08:33:01.478Z,33.75
2018-01-28T08:34:01.387Z,39.38
2018-01-28T08:35:01.352Z,39.38
2018-01-28T08:36:01.309Z,33.75
2018-01-28T08:37:01.269Z,39.38
2018-01-28T08:38:01.232Z,45.00
2018-01-28T08:39:01.185Z,56.25
2018-01-28T08:40:01.150Z,61.88
2018-01-28T08:41:01.107Z,61.88
2018-01-28T08:42:01.070Z,50.63
2018-01-28T08:43:01.037Z,33.75
2018-01-28T08:44:00.987Z,28.13
2018-01-28T08:45:00.947Z,28.13
2018-01-28T08:46:00.942Z,39.38
2018-01-28T08:47:00.867Z,45.00
2018-01-28T08:48:00.831Z,45.00
2018-01-28T08:49:00.789Z,45.00
2018-01-28T08:50:00.756Z,28.13
2018-01-28T08:51:00.733Z,33.75
2018-01-28T08:52:00.688Z,33.75
2018-01-28T08:53:00.627Z,45.00
2018-01-28T08:54:00.588Z,56.25
2018-01-28T08:55:00.545Z,61.88
2018-01-28T08:56:00.506Z,61.88
2018-01-28T08:57:00.467Z,67.50
2018-01-28T08:58:00.437Z,56.25
2018-01-28T08:59:00.387Z,67.50
2018-01-28T09:00:00.352Z,61.88
2018-01-28T09:01:00.309Z,95.63
2018-01-28T09:02:00.276Z,106.88
2018-01-28T09:03:00.228Z,112.50
2018-01-28T09:04:00.186Z,118.13
2018-01-28T09:05:00.153Z,157.50
2018-01-28T09:06:00.118Z,174.38
2018-01-28T09:07:00.103Z,168.75
2018-01-28T09:08:00.033Z,151.88
2018-01-28T09:09:00.006Z,163.13
2018-01-28T09:09:59.949Z,157.50
2018-01-28T09:10:59.914Z,146.25
2018-01-28T09:11:59.867Z,146.25
2018-01-28T09:12:59.836Z,140.63
2018-01-28T09:13:59.791Z,140.63
2018-01-28T09:14:59.787Z,157.50
2018-01-28T09:15:59.721Z,180.00
2018-01-28T09:16:59.670Z,196.88
2018-01-28T09:17:59.638Z,213.75
2018-01-28T09:18:59.593Z,213.75
2018-01-28T09:19:59.553Z,247.50
2018-01-28T09:20:59.512Z,253.13
2018-01-28T09:21:59.510Z,281.25
2018-01-28T09:22:59.432Z,298.13
2018-01-28T09:23:59.392Z,320.63
2018-01-28T09:24:59.352Z,326.25
2018-01-28T09:25:59.313Z,326.25
2018-01-28T09:26:59.277Z,292.50
2018-01-28T09:27:59.256Z,326.25
2018-01-28T09:28:59.197Z,303.75
2018-01-28T09:29:59.154Z,309.38
2018-01-28T09:30:59.114Z,281.25
2018-01-28T09:31:59.085Z,331.88
2018-01-28T09:32:59.037Z,343.13
2018-01-28T09:33:58.998Z,331.88
2018-01-28T09:34:58.965Z,315.00
2018-01-28T09:35:58.917Z,303.75
2018-01-28T09:36:58.878Z,326.25
2018-01-28T09:37:58.841Z,354.38
2018-01-28T09:38:58.813Z,354.38
2018-01-28T09:39:58.761Z,315.00
2018-01-28T09:40:58.721Z,298.13
2018-01-28T09:41:58.684Z,348.75
2018-01-28T09:42:58.642Z,286.88
2018-01-28T09:43:58.609Z,286.88
2018-01-28T09:44:58.566Z,348.75
2018-01-28T09:45:58.538Z,315.00
2018-01-28T09:46:58.489Z,343.13
2018-01-28T09:47:58.458Z,315.00
2018-01-28T09:48:58.409Z,354.38
2018-01-28T09:49:58.370Z,388.13
2018-01-28T09:50:58.338Z,343.13
2018-01-28T09:51:58.335Z,275.63
2018-01-28T09:52:58.252Z,236.25
2018-01-28T09:53:58.213Z,230.63
2018-01-28T09:54:58.174Z,225.00
2018-01-28T09:55:58.142Z,213.75
2018-01-28T09:56:58.098Z,213.75
2018-01-28T09:57:58.057Z,225.00
2018-01-28T09:58:58.019Z,225.00
2018-01-28T09:59:57.986Z,225.00
2018-01-28T10:00:57.944Z,230.63
2018-01-28T10:01:57.900Z,219.38
2018-01-28T10:02:57.865Z,213.75
2018-01-28T10:03:57.825Z,196.88
2018-01-28T10:04:57.792Z,196.88
2018-01-28T10:05:57.746Z,191.25
2018-01-28T10:06:57.717Z,196.88
2018-01-28T10:07:57.685Z,213.75
2018-01-28T10:08:57.637Z,225.00
2018-01-28T10:09:57.597Z,236.25
2018-01-28T10:10:57.553Z,247.50
2018-01-28T10:11:57.516Z,258.75
2018-01-28T10:12:57.475Z,275.63
2018-01-28T10:13:57.450Z,281.25
2018-01-28T10:14:57.398Z,286.88
2018-01-28T10:15:57.360Z,292.50
2018-01-28T10:16:57.329Z,298.13
2018-01-28T10:17:57.298Z,303.75
2018-01-28T10:18:57.246Z,303.75
2018-01-28T10:19:57.210Z,292.50
2018-01-28T10:20:57.166Z,298.13
2018-01-28T10:21:57.127Z,315.00
2018-01-28T10:22:57.110Z,309.38
2018-01-28T10:23:57.048Z,315.00
2018-01-28T10:24:57.014Z,315.00
2018-01-28T10:25:56.974Z,320.63
2018-01-28T10:26:56.937Z,320.63
2018-01-28T10:27:56.899Z,315.00
2018-01-28T10:28:56.859Z,315.00
2018-01-28T10:29:56.819Z,303.75
2018-01-28T10:30:56.781Z,298.13
2018-01-28T10:31:56.744Z,286.88
2018-01-28T10:32:56.702Z,281.25
2018-01-28T10:33:56.664Z,275.63
2018-01-28T10:34:56.626Z,270.00
2018-01-28T10:35:56.591Z,270.00
2018-01-28T10:36:56.549Z,275.63
2018-01-28T10:37:56.511Z,275.63
2018-01-28T10:38:56.497Z,264.38
2018-01-28T10:39:56.447Z,236.25
2018-01-28T10:40:56.398Z,225.00
2018-01-28T10:41:56.356Z,213.75
2018-01-28T10:42:56.318Z,202.50
2018-01-28T10:43:56.284Z,168.75
2018-01-28T10:44:56.246Z,157.50
2018-01-28T10:45:56.207Z,180.00
2018-01-28T10:46:56.177Z,185.63
2018-01-28T10:47:56.132Z,191.25
2018-01-28T10:48:56.091Z,219.38
2018-01-28T10:49:56.061Z,241.88
2018-01-28T10:50:56.013Z,247.50
2018-01-28T10:51:55.984Z,236.25
2018-01-28T10:52:55.946Z,236.25
2018-01-28T10:53:55.903Z,236.25
2018-01-28T10:54:55.887Z,241.88
2018-01-28T10:55:55.825Z,225.00
2018-01-28T10:56:55.786Z,208.13
2018-01-28T10:57:55.747Z,185.63
2018-01-28T10:58:55.713Z,151.88
2018-01-28T10:59:55.674Z,135.00
2018-01-28T11:00:55.634Z,118.13
2018-01-28T11:01:55.603Z,101.25
2018-01-28T11:02:55.555Z,101.25
2018-01-28T11:03:55.523Z,118.13
2018-01-28T11:04:55.482Z,146.25
2018-01-28T11:05:55.443Z,157.50
2018-01-28T11:06:55.404Z,174.38
2018-01-28T11:07:55.365Z,185.63
2018-01-28T11:08:55.329Z,196.88
2018-01-28T11:09:55.289Z,191.25
2018-01-28T11:10:55.254Z,202.50
2018-01-28T11:11:55.213Z,236.25
2018-01-28T11:12:55.193Z,275.63
2018-01-28T11:13:55.131Z,281.25
2018-01-28T11:14:55.115Z,264.38
2018-01-28T11:15:55.074Z,264.38
2018-01-28T11:16:55.030Z,275.63
2018-01-28T11:17:54.997Z,264.38
2018-01-28T11:18:54.947Z,258.75
2018-01-28T11:19:54.914Z,270.00
2018-01-28T11:20:54.877Z,270.00
2018-01-28T11:21:54.833Z,270.00
2018-01-28T11:22:54.795Z,258.75
2018-01-28T11:23:54.767Z,270.00
2018-01-28T11:24:54.718Z,281.25
2018-01-28T11:25:54.681Z,270.00
2018-01-28T11:26:54.645Z,247.50
2018-01-28T11:27:54.605Z,247.50
2018-01-28T11:28:54.568Z,241.88
2018-01-28T11:29:54.539Z,264.38
2018-01-28T11:30:54.493Z,270.00
2018-01-28T11:31:54.457Z,253.13
2018-01-28T11:32:54.416Z,219.38
2018-01-28T11:33:54.378Z,202.50
2018-01-28T11:34:54.341Z,191.25
2018-01-28T11:35:54.321Z,163.13
2018-01-28T11:36:54.264Z,168.75
2018-01-28T11:37:54.245Z,196.88
2018-01-28T11:38:54.187Z,180.00
2018-01-28T11:39:54.150Z,168.75
2018-01-28T11:40:54.124Z,168.75
2018-01-28T11:41:54.074Z,180.00
2018-01-28T11:42:54.041Z,191.25
2018-01-28T11:43:54.043Z,191.25
2018-01-28T11:44:53.960Z,180.00
2018-01-28T11:45:53.935Z,140.63
2018-01-28T11:46:53.894Z,106.88
2018-01-28T11:47:53.858Z,90.00
2018-01-28T11:48:53.807Z,101.25
2018-01-28T11:49:53.777Z,112.50
2018-01-28T11:50:53.738Z,118.13
2018-01-28T11:51:53.703Z,123.75
2018-01-28T11:52:53.658Z,118.13
2018-01-28T11:53:53.625Z,101.25
2018-01-28T11:54:53.581Z,90.00
2018-01-28T11:55:53.542Z,84.38
2018-01-28T11:56:53.505Z,73.13
2018-01-28T11:57:53.468Z,67.50
2018-01-28T11:58:53.450Z,101.25
2018-01-28T11:59:53.397Z,140.63
2018-01-28T12:00:53.361Z,180.00
2018-01-28T12:01:53.330Z,225.00
2018-01-28T12:02:53.285Z,196.88
2018-01-28T12:03:53.237Z,185.63
2018-01-28T12:04:53.201Z,191.25
2018-01-28T12:05:53.172Z,230.63
2018-01-28T12:06:53.122Z,270.00
2018-01-28T12:07:53.084Z,292.50
2018-01-28T12:08:53.049Z,303.75
2018-01-28T12:09:53.017Z,315.00
2018-01-28T12:10:52.970Z,320.63
2018-01-28T12:11:52.938Z,315.00
2018-01-28T12:12:52.893Z,309.38
2018-01-28T12:13:52.852Z,309.38
2018-01-28T12:14:52.822Z,292.50
2018-01-28T12:15:52.786Z,253.13
2018-01-28T12:16:52.736Z,225.00
2018-01-28T12:17:52.710Z,208.13
2018-01-28T12:18:52.679Z,213.75
2018-01-28T12:19:52.628Z,202.50
2018-01-28T12:20:52.590Z,196.88
2018-01-28T12:21:52.542Z,168.75
2018-01-28T12:22:52.511Z,180.00
2018-01-28T12:23:52.496Z,135.00
2018-01-28T12:24:52.433Z,84.38
2018-01-28T12:25:52.399Z,56.25
2018-01-28T12:26:52.364Z,45.00
2018-01-28T12:27:52.317Z,39.38
2018-01-28T12:28:52.285Z,33.75
2018-01-28T12:29:52.262Z,28.13
2018-01-28T12:30:52.230Z,28.13
2018-01-28T12:31:52.203Z,33.75
2018-01-28T12:32:52.127Z,50.63
2018-01-28T12:33:52.096Z,84.38
2018-01-28T12:34:52.053Z,101.25
2018-01-28T12:35:52.020Z,123.75
2018-01-28T12:36:51.977Z,146.25
2018-01-28T12:37:51.935Z,140.63
2018-01-28T12:38:51.901Z,123.75
2018-01-28T12:39:51.865Z,106.88
2018-01-28T12:40:51.822Z,106.88
2018-01-28T12:41:51.780Z,106.88
2018-01-28T12:42:51.742Z,112.50
2018-01-28T12:43:51.707Z,118.13
2018-01-28T12:44:51.674Z,90.00
2018-01-28T12:45:51.640Z,73.13
2018-01-28T12:46:51.590Z,73.13
2018-01-28T12:47:51.564Z,95.63
2018-01-28T12:48:51.510Z,95.63
2018-01-28T12:49:51.485Z,101.25
2018-01-28T12:50:51.451Z,106.88
2018-01-28T12:51:51.398Z,84.38
2018-01-28T12:52:51.358Z,67.50
2018-01-28T12:53:51.317Z,67.50
2018-01-28T12:54:51.286Z,61.88
2018-01-28T12:55:51.241Z,56.25
2018-01-28T12:56:51.212Z,56.25
2018-01-28T12:57:51.163Z,73.13
2018-01-28T12:58:51.126Z,106.88
2018-01-28T12:59:51.093Z,95.63